Time;durP1;ratioP1;P1;durP2;ratioP2;P2;SDS_P1;SDS_P2;PMS_P1;PMS_P2;Temp;Humidity;BMP_temperature;BMP_pressure;BME280_temperature;BME280_humidity;BME280_pressure;Samples;Min_cycle;Max_cycle;Signal;HPM_P1;HPM_P2
2022/03/30 00:01:21;;;;;;;30.88;13.43;;;;;;;;;;5086126;28;20048;-60
2022/03/30 00:03:47;;;;;;;29.73;12.90;;;;;;;;;;5091768;28;20070;-60
2022/03/30 00:06:13;;;;;;;26.83;13.35;;;;;;;;;;5079492;28;20493;-60
2022/03/30 00:08:39;;;;;;;28.85;13.05;;;;;;;;;;5066014;28;20044;-60
2022/03/30 00:11:05;;;;;;;28.75;13.05;;;;;;;;;;5084274;28;20378;-60
2022/03/30 00:13:31;;;;;;;27.55;13.68;;;;;;;;;;5078601;28;20485;-60
2022/03/30 00:15:57;;;;;;;30.80;14.23;;;;;;;;;;5084499;28;20042;-61
2022/03/30 00:18:23;;;;;;;31.50;14.00;;;;;;;;;;5066690;28;20047;-60
2022/03/30 00:20:49;;;;;;;29.85;13.90;;;;;;;;;;5077800;28;20064;-60
2022/03/30 00:23:15;;;;;;;25.23;12.50;;;;;;;;;;5064603;28;20071;-60
2022/03/30 00:25:41;;;;;;;28.98;14.27;;;;;;;;;;5079999;28;20051;-60
2022/03/30 00:28:08;;;;;;;26.83;13.10;;;;;;;;;;5077855;28;20060;-60
2022/03/30 00:30:34;;;;;;;26.83;13.48;;;;;;;;;;5082587;28;20582;-60
2022/03/30 00:33:00;;;;;;;30.20;13.90;;;;;;;;;;5083605;28;20045;-60
2022/03/30 00:35:26;;;;;;;26.67;13.30;;;;;;;;;;5080612;28;20058;-60
2022/03/30 00:37:52;;;;;;;31.83;13.35;;;;;;;;;;5073749;28;20116;-61
2022/03/30 00:40:18;;;;;;;29.92;13.63;;;;;;;;;;5070503;28;20045;-61
2022/03/30 00:42:45;;;;;;;30.80;14.35;;;;;;;;;;5069066;28;20421;-61
2022/03/30 00:45:12;;;;;;;39.83;14.20;;;;;;;;;;5077747;28;20050;-61
2022/03/30 00:47:39;;;;;;;28.25;13.75;;;;;;;;;;5072904;28;20053;-61
2022/03/30 00:50:06;;;;;;;36.22;14.55;;;;;;;;;;5072792;28;20506;-61
2022/03/30 00:52:32;;;;;;;32.67;14.00;;;;;;;;;;5075382;28;20047;-61
2022/03/30 00:54:58;;;;;;;28.52;14.40;;;;;;;;;;5067574;28;20028;-61
2022/03/30 00:57:25;;;;;;;28.08;14.07;;;;;;;;;;5073467;28;20070;-61
2022/03/30 00:59:51;;;;;;;31.92;14.38;;;;;;;;;;5073734;28;20036;-61
2022/03/30 01:02:17;;;;;;;33.60;14.77;;;;;;;;;;5069360;28;20032;-60
2022/03/30 01:04:46;;;;;;;29.63;14.80;;;;;;;;;;5062574;28;20509;-61
2022/03/30 01:07:16;;;;;;;38.22;14.32;;;;;;;;;;5060516;28;20379;-61
2022/03/30 01:09:42;;;;;;;32.92;14.43;;;;;;;;;;5062097;28;20071;-61
2022/03/30 01:12:12;;;;;;;29.30;14.60;;;;;;;;;;5063705;28;20143;-61
2022/03/30 01:14:38;;;;;;;32.45;13.85;;;;;;;;;;5060543;28;20457;-61
2022/03/30 01:17:05;;;;;;;29.38;13.95;;;;;;;;;;5066113;28;20044;-61
2022/03/30 01:19:32;;;;;;;29.35;14.93;;;;;;;;;;5073369;28;20028;-60
2022/03/30 01:21:59;;;;;;;28.40;14.02;;;;;;;;;;5059406;28;20071;-60
2022/03/30 01:24:26;;;;;;;27.13;13.20;;;;;;;;;;5076952;28;20042;-60
2022/03/30 01:26:52;;;;;;;31.83;14.57;;;;;;;;;;5084640;28;20045;-60
2022/03/30 01:34:49;;;;;;;32.97;14.63;;;;;;;;;;5058902;28;20041;-60
2022/03/30 01:37:15;;;;;;;34.20;14.40;;;;;;;;;;5089801;28;20047;-60
2022/03/30 01:39:42;;;;;;;32.90;15.88;;;;;;;;;;5066747;28;20040;-61
2022/03/30 01:42:08;;;;;;;34.60;16.65;;;;;;;;;;5051593;28;20107;-60
2022/03/30 01:44:35;;;;;;;32.88;14.88;;;;;;;;;;5051506;28;20554;-61
2022/03/30 01:47:01;;;;;;;33.58;14.70;;;;;;;;;;5065871;28;20039;-61
2022/03/30 01:49:27;;;;;;;35.03;15.38;;;;;;;;;;5071792;28;20036;-61
2022/03/30 01:51:54;;;;;;;36.70;15.35;;;;;;;;;;5051409;28;20091;-60
2022/03/30 01:54:22;;;;;;;33.05;14.60;;;;;;;;;;5049548;28;20041;-60
2022/03/30 01:56:48;;;;;;;34.88;14.68;;;;;;;;;;5060407;28;20043;-60
2022/03/30 01:59:14;;;;;;;32.30;14.63;;;;;;;;;;5070478;28;20044;-61
2022/03/30 02:01:41;;;;;;;33.47;15.77;;;;;;;;;;5062048;28;20066;-60
2022/03/30 02:04:07;;;;;;;31.15;14.70;;;;;;;;;;5065749;28;20044;-60
2022/03/30 02:06:36;;;;;;;33.08;15.93;;;;;;;;;;5061256;28;20534;-60
2022/03/30 02:09:02;;;;;;;33.92;15.52;;;;;;;;;;5075872;28;20039;-60
2022/03/30 02:11:28;;;;;;;33.05;15.73;;;;;;;;;;5053068;28;20032;-60
2022/03/30 02:13:55;;;;;;;33.28;14.65;;;;;;;;;;5082156;28;20405;-60
2022/03/30 02:16:21;;;;;;;34.95;16.40;;;;;;;;;;5074908;28;20049;-60
2022/03/30 02:18:50;;;;;;;28.80;15.48;;;;;;;;;;5076169;28;20073;-62
2022/03/30 02:21:17;;;;;;;36.72;15.70;;;;;;;;;;5068618;28;20398;-60
2022/03/30 02:23:45;;;;;;;36.58;16.67;;;;;;;;;;5066745;28;20048;-60
2022/03/30 02:26:11;;;;;;;34.58;16.35;;;;;;;;;;5061743;28;20055;-60
2022/03/30 02:28:37;;;;;;;33.20;16.52;;;;;;;;;;5075828;28;20469;-61
2022/03/30 02:31:03;;;;;;;36.38;15.80;;;;;;;;;;5058594;28;20521;-61
2022/03/30 02:33:29;;;;;;;33.35;16.05;;;;;;;;;;5071018;28;20072;-61
2022/03/30 02:35:56;;;;;;;40.03;16.10;;;;;;;;;;5068564;28;20029;-61
2022/03/30 02:38:22;;;;;;;32.47;16.52;;;;;;;;;;5055795;28;20047;-60
2022/03/30 02:40:48;;;;;;;35.17;16.17;;;;;;;;;;5052143;28;20037;-61
2022/03/30 02:43:16;;;;;;;35.08;15.48;;;;;;;;;;5064191;28;20043;-60
2022/03/30 02:45:43;;;;;;;35.25;16.85;;;;;;;;;;5071017;28;20115;-61
2022/03/30 02:48:18;;;;;;;35.50;16.70;;;;;;;;;;5051757;28;20044;-60
2022/03/30 02:50:47;;;;;;;34.63;15.27;;;;;;;;;;5070877;28;20505;-60
2022/03/30 02:53:14;;;;;;;31.02;15.45;;;;;;;;;;5070799;28;20101;-60
2022/03/30 02:55:40;;;;;;;35.45;16.38;;;;;;;;;;5066342;28;20049;-60
2022/03/30 02:58:06;;;;;;;33.22;16.42;;;;;;;;;;5057642;28;20044;-60
2022/03/30 03:00:32;;;;;;;32.28;16.23;;;;;;;;;;5053738;28;20041;-60
2022/03/30 03:03:02;;;;;;;32.78;16.65;;;;;;;;;;5051786;28;20487;-60
2022/03/30 03:05:38;;;;;;;32.67;16.52;;;;;;;;;;5051820;28;20455;-60
2022/03/30 03:08:07;;;;;;;36.80;17.25;;;;;;;;;;5067838;28;20148;-60
2022/03/30 03:10:37;;;;;;;37.95;16.90;;;;;;;;;;5061210;28;20090;-60
2022/03/30 03:13:04;;;;;;;33.92;16.75;;;;;;;;;;5070131;28;20405;-60
2022/03/30 03:15:33;;;;;;;34.50;16.33;;;;;;;;;;5069081;28;20043;-60
2022/03/30 03:18:01;;;;;;;37.40;16.80;;;;;;;;;;5068235;28;20115;-60
2022/03/30 03:20:27;;;;;;;42.38;17.88;;;;;;;;;;5070294;28;20438;-60
2022/03/30 03:22:54;;;;;;;38.55;17.13;;;;;;;;;;5053444;28;20045;-60
2022/03/30 03:25:20;;;;;;;35.88;16.88;;;;;;;;;;5050706;28;20426;-60
2022/03/30 03:27:46;;;;;;;35.78;17.10;;;;;;;;;;5065952;28;20041;-60
2022/03/30 03:30:13;;;;;;;32.97;16.63;;;;;;;;;;5059332;28;20037;-59
2022/03/30 03:32:39;;;;;;;37.20;16.33;;;;;;;;;;5059015;28;20079;-60
2022/03/30 03:35:07;;;;;;;37.95;17.15;;;;;;;;;;5055359;28;20048;-60
2022/03/30 03:37:33;;;;;;;37.20;17.52;;;;;;;;;;5054795;28;20036;-60
2022/03/30 03:39:59;;;;;;;36.17;16.95;;;;;;;;;;5054565;28;20056;-60
2022/03/30 03:42:25;;;;;;;36.03;18.42;;;;;;;;;;5070027;28;20040;-60
2022/03/30 03:44:51;;;;;;;36.42;17.55;;;;;;;;;;5073773;28;20123;-60
2022/03/30 03:47:17;;;;;;;40.47;18.42;;;;;;;;;;5069329;28;20101;-60
2022/03/30 03:49:44;;;;;;;39.65;17.23;;;;;;;;;;5059980;28;20417;-60
2022/03/30 03:52:10;;;;;;;36.17;17.20;;;;;;;;;;5067502;28;20483;-61
2022/03/30 03:54:36;;;;;;;37.17;17.83;;;;;;;;;;5073548;28;20048;-60
2022/03/30 03:57:02;;;;;;;40.70;17.83;;;;;;;;;;5065173;28;20143;-61
2022/03/30 03:59:28;;;;;;;42.33;18.63;;;;;;;;;;5057363;28;20038;-61
2022/03/30 04:01:54;;;;;;;36.42;17.38;;;;;;;;;;5068170;28;20486;-60
2022/03/30 04:04:20;;;;;;;37.85;16.75;;;;;;;;;;5065085;28;20127;-61
2022/03/30 04:06:46;;;;;;;39.20;18.00;;;;;;;;;;5072284;28;20151;-61
2022/03/30 04:09:12;;;;;;;42.72;18.63;;;;;;;;;;5072775;28;20072;-61
2022/03/30 04:11:38;;;;;;;36.83;18.08;;;;;;;;;;5057912;28;20099;-61
2022/03/30 04:14:04;;;;;;;38.13;16.60;;;;;;;;;;5053231;28;20045;-61
2022/03/30 04:16:30;;;;;;;40.88;17.90;;;;;;;;;;5059768;28;20459;-61
2022/03/30 04:18:56;;;;;;;38.28;18.30;;;;;;;;;;5053116;28;20082;-61
2022/03/30 04:21:23;;;;;;;41.13;18.15;;;;;;;;;;5056064;28;20037;-61
2022/03/30 04:23:49;;;;;;;42.40;19.42;;;;;;;;;;5072307;28;20051;-61
2022/03/30 04:26:15;;;;;;;43.88;18.75;;;;;;;;;;5070681;28;20044;-61
2022/03/30 04:28:41;;;;;;;40.92;18.17;;;;;;;;;;5051905;28;20052;-61
2022/03/30 04:31:07;;;;;;;36.47;17.92;;;;;;;;;;5058918;28;20040;-61
2022/03/30 04:33:34;;;;;;;42.95;18.48;;;;;;;;;;5053003;28;20541;-61
2022/03/30 04:36:00;;;;;;;40.60;18.63;;;;;;;;;;5053253;28;20079;-60
2022/03/30 04:38:26;;;;;;;42.13;19.55;;;;;;;;;;5060927;28;20042;-61
2022/03/30 04:40:52;;;;;;;42.03;19.83;;;;;;;;;;5070962;28;20048;-61
2022/03/30 04:43:18;;;;;;;44.22;19.65;;;;;;;;;;5058062;28;20044;-61
2022/03/30 04:45:44;;;;;;;42.50;19.63;;;;;;;;;;5059110;28;20132;-61
2022/03/30 04:48:10;;;;;;;43.42;19.45;;;;;;;;;;5070567;28;20411;-61
2022/03/30 04:50:36;;;;;;;43.35;19.30;;;;;;;;;;5073891;28;20071;-61
2022/03/30 04:53:02;;;;;;;40.05;19.67;;;;;;;;;;5059578;28;20037;-61
2022/03/30 04:55:28;;;;;;;49.60;20.08;;;;;;;;;;5061689;28;20037;-61
2022/03/30 04:57:54;;;;;;;46.05;18.95;;;;;;;;;;5080448;28;20100;-61
2022/03/30 05:00:20;;;;;;;44.30;20.63;;;;;;;;;;5071399;28;20051;-61
2022/03/30 05:02:46;;;;;;;42.50;19.27;;;;;;;;;;5070116;28;20032;-61
2022/03/30 05:05:12;;;;;;;43.03;19.92;;;;;;;;;;5055176;28;20036;-61
2022/03/30 05:07:38;;;;;;;47.67;21.38;;;;;;;;;;5052541;28;20069;-61
2022/03/30 05:10:06;;;;;;;44.75;19.48;;;;;;;;;;5058536;28;20089;-60
2022/03/30 05:12:32;;;;;;;39.22;18.73;;;;;;;;;;5060492;28;20044;-61
2022/03/30 05:14:58;;;;;;;49.75;20.60;;;;;;;;;;5072138;28;20047;-61
2022/03/30 05:17:24;;;;;;;43.42;19.25;;;;;;;;;;5068989;28;20044;-61
2022/03/30 05:19:50;;;;;;;46.38;20.30;;;;;;;;;;5065407;28;20040;-60
2022/03/30 05:22:16;;;;;;;43.03;19.05;;;;;;;;;;5066234;28;20136;-61
2022/03/30 05:24:43;;;;;;;41.17;19.85;;;;;;;;;;5068078;28;20037;-60
2022/03/30 05:27:09;;;;;;;41.60;18.55;;;;;;;;;;5060788;28;20041;-61
2022/03/30 05:29:36;;;;;;;45.40;19.13;;;;;;;;;;5056794;28;20380;-61
2022/03/30 05:32:02;;;;;;;46.47;19.08;;;;;;;;;;5064058;28;20032;-61
2022/03/30 05:34:28;;;;;;;40.63;17.88;;;;;;;;;;5058457;28;20046;-60
2022/03/30 05:36:54;;;;;;;37.53;17.35;;;;;;;;;;5067373;28;20129;-61
2022/03/30 05:39:20;;;;;;;40.92;17.25;;;;;;;;;;5070681;28;20336;-61
2022/03/30 05:41:46;;;;;;;40.53;17.15;;;;;;;;;;5071777;28;20036;-61
2022/03/30 05:44:12;;;;;;;37.15;16.15;;;;;;;;;;5070311;28;20182;-61
2022/03/30 05:46:39;;;;;;;36.38;15.52;;;;;;;;;;5066784;28;20043;-61
2022/03/30 05:49:05;;;;;;;36.92;16.55;;;;;;;;;;5059278;28;20135;-61
2022/03/30 05:51:32;;;;;;;33.53;15.85;;;;;;;;;;5075939;28;20059;-61
2022/03/30 05:53:58;;;;;;;36.22;14.18;;;;;;;;;;5091654;28;20044;-61
2022/03/30 05:57:00;;;;;;;33.33;14.23;;;;;;;;;;5091590;28;20039;-61
2022/03/30 05:59:11;;;;;;;32.38;13.90;;;;;;;;;;5081595;28;20051;-61
2022/03/30 06:01:38;;;;;;;23.83;11.30;;;;;;;;;;5063390;28;20040;-61
2022/03/30 06:04:04;;;;;;;25.67;11.32;;;;;;;;;;5078168;28;20047;-61
2022/03/30 06:06:30;;;;;;;23.70;11.07;;;;;;;;;;5058625;28;20117;-61
2022/03/30 06:08:56;;;;;;;26.38;11.20;;;;;;;;;;5056470;28;20089;-60
2022/03/30 06:11:22;;;;;;;29.27;10.50;;;;;;;;;;5068882;28;20458;-60
2022/03/30 06:13:48;;;;;;;23.20;9.82;;;;;;;;;;5057858;28;20053;-60
2022/03/30 06:16:15;;;;;;;18.80;8.73;;;;;;;;;;5069862;28;20037;-60
2022/03/30 06:18:43;;;;;;;15.90;7.70;;;;;;;;;;5069314;28;20456;-60
2022/03/30 06:21:09;;;;;;;20.80;8.15;;;;;;;;;;5067154;28;20095;-60
2022/03/30 06:23:35;;;;;;;11.77;5.82;;;;;;;;;;5070126;28;20048;-61
2022/03/30 06:26:01;;;;;;;13.20;6.65;;;;;;;;;;5064277;28;20120;-61
2022/03/30 06:28:29;;;;;;;8.82;4.70;;;;;;;;;;5066825;28;20052;-60
2022/03/30 06:30:55;;;;;;;5.53;4.05;;;;;;;;;;5051568;28;20741;-60
2022/03/30 06:33:21;;;;;;;6.28;3.22;;;;;;;;;;5063520;28;20069;-60
2022/03/30 06:35:47;;;;;;;3.72;2.65;;;;;;;;;;5051691;28;20423;-60
2022/03/30 06:38:13;;;;;;;2.90;2.50;;;;;;;;;;5051149;28;20036;-60
2022/03/30 06:40:39;;;;;;;2.00;1.60;;;;;;;;;;5053825;28;20049;-61
2022/03/30 06:43:05;;;;;;;2.70;1.90;;;;;;;;;;5056245;28;20033;-61
2022/03/30 06:45:31;;;;;;;2.33;1.80;;;;;;;;;;5065639;28;20081;-61
2022/03/30 06:47:57;;;;;;;2.75;1.80;;;;;;;;;;5052809;28;20272;-61
2022/03/30 06:50:24;;;;;;;2.40;1.98;;;;;;;;;;5071560;28;20059;-61
2022/03/30 06:52:50;;;;;;;4.18;2.30;;;;;;;;;;5062296;28;20041;-61
2022/03/30 06:55:16;;;;;;;2.70;2.20;;;;;;;;;;5057224;28;20098;-61
2022/03/30 06:57:43;;;;;;;3.40;2.60;;;;;;;;;;5058718;28;20040;-61
2022/03/30 07:00:12;;;;;;;4.07;2.60;;;;;;;;;;5050103;28;20041;-61
2022/03/30 07:02:38;;;;;;;4.03;3.08;;;;;;;;;;5074854;28;20040;-61
2022/03/30 07:05:04;;;;;;;4.15;3.00;;;;;;;;;;5066810;28;20040;-61
2022/03/30 07:10:15;;;;;;;5.45;3.63;;;;;;;;;;5062489;28;20499;-61
2022/03/30 07:12:41;;;;;;;4.95;3.60;;;;;;;;;;5058172;28;20037;-61
2022/03/30 07:15:07;;;;;;;4.95;3.35;;;;;;;;;;5058593;28;20037;-61
2022/03/30 07:17:33;;;;;;;3.80;2.20;;;;;;;;;;5060399;28;20041;-61
2022/03/30 07:20:00;;;;;;;2.03;1.65;;;;;;;;;;5065143;28;20078;-61
2022/03/30 07:22:26;;;;;;;1.95;1.60;;;;;;;;;;5064301;28;20036;-61
2022/03/30 07:24:52;;;;;;;1.40;1.23;;;;;;;;;;5067173;28;20032;-61
2022/03/30 07:27:18;;;;;;;1.45;1.33;;;;;;;;;;5081007;28;20452;-61
2022/03/30 07:29:48;;;;;;;1.17;1.08;;;;;;;;;;5056831;28;20048;-60
2022/03/30 07:32:14;;;;;;;1.17;1.00;;;;;;;;;;5066270;28;20048;-60
2022/03/30 07:34:40;;;;;;;1.17;1.05;;;;;;;;;;5054955;28;20037;-60
2022/03/30 07:37:06;;;;;;;1.25;1.05;;;;;;;;;;5055119;28;20033;-60
2022/03/30 07:39:32;;;;;;;0.80;0.80;;;;;;;;;;5067821;28;20490;-61
2022/03/30 07:41:58;;;;;;;1.77;1.08;;;;;;;;;;5066838;28;20116;-61
2022/03/30 07:44:24;;;;;;;1.75;1.00;;;;;;;;;;5074185;28;20545;-61
2022/03/30 07:46:51;;;;;;;1.35;1.17;;;;;;;;;;5062358;28;20055;-61
2022/03/30 07:49:17;;;;;;;2.67;1.17;;;;;;;;;;5067943;28;20437;-61
2022/03/30 07:51:43;;;;;;;2.10;1.20;;;;;;;;;;5053930;28;20036;-61
2022/03/30 07:54:10;;;;;;;3.45;1.33;;;;;;;;;;5061926;28;20072;-60
2022/03/30 07:56:36;;;;;;;4.07;1.23;;;;;;;;;;5059341;28;20033;-62
2022/03/30 07:59:01;;;;;;;1.33;1.10;;;;;;;;;;5071756;28;20636;-61
2022/03/30 08:01:28;;;;;;;3.15;1.60;;;;;;;;;;5069477;28;20203;-60
2022/03/30 08:03:54;;;;;;;1.38;1.00;;;;;;;;;;5065655;28;20055;-60
2022/03/30 08:06:20;;;;;;;1.42;1.33;;;;;;;;;;5070306;28;20353;-60
2022/03/30 08:08:46;;;;;;;4.22;1.30;;;;;;;;;;5068146;28;20040;-60
2022/03/30 08:11:13;;;;;;;2.17;1.10;;;;;;;;;;5067006;28;20048;-60
2022/03/30 08:13:39;;;;;;;2.28;1.40;;;;;;;;;;5081067;28;20040;-60
2022/03/30 08:16:05;;;;;;;4.47;1.52;;;;;;;;;;5081366;28;20120;-60
2022/03/30 08:18:31;;;;;;;2.25;1.35;;;;;;;;;;5070976;28;20064;-61
2022/03/30 08:23:42;;;;;;;2.83;1.30;;;;;;;;;;5064717;28;20040;-61
2022/03/30 08:26:08;;;;;;;4.03;1.52;;;;;;;;;;5078634;28;20045;-61
2022/03/30 08:28:34;;;;;;;2.50;1.67;;;;;;;;;;5052822;28;20044;-61
2022/03/30 08:31:00;;;;;;;4.32;2.20;;;;;;;;;;5053098;28;20070;-61
2022/03/30 08:33:27;;;;;;;2.55;1.33;;;;;;;;;;5052661;28;20529;-61
2022/03/30 08:35:56;;;;;;;2.58;1.52;;;;;;;;;;5058810;28;20033;-61
2022/03/30 08:38:22;;;;;;;2.47;1.50;;;;;;;;;;5067167;28;20102;-60
2022/03/30 08:40:49;;;;;;;1.65;1.33;;;;;;;;;;5078896;28;20445;-61
2022/03/30 08:43:16;;;;;;;2.40;1.40;;;;;;;;;;5063395;28;20353;-61
2022/03/30 08:45:42;;;;;;;2.10;1.27;;;;;;;;;;5054140;28;20041;-61
2022/03/30 08:48:08;;;;;;;2.50;1.15;;;;;;;;;;5054595;28;20139;-61
2022/03/30 08:50:34;;;;;;;2.35;1.30;;;;;;;;;;5065898;28;20230;-60
2022/03/30 08:53:03;;;;;;;1.67;1.10;;;;;;;;;;5077250;28;20048;-61
2022/03/30 08:55:29;;;;;;;4.00;1.40;;;;;;;;;;5057350;28;20485;-61
2022/03/30 08:57:55;;;;;;;2.28;1.17;;;;;;;;;;5068694;28;20552;-61
2022/03/30 09:00:22;;;;;;;3.53;1.50;;;;;;;;;;5070880;28;20032;-61
2022/03/30 09:03:00;;;;;;;3.40;1.70;;;;;;;;;;5071765;28;20033;-61
2022/03/30 09:05:27;;;;;;;4.07;1.70;;;;;;;;;;5073312;28;20087;-61
2022/03/30 09:07:55;;;;;;;3.90;1.77;;;;;;;;;;5070968;28;20048;-61
2022/03/30 09:10:22;;;;;;;2.10;1.50;;;;;;;;;;5061772;28;20454;-61
2022/03/30 09:12:50;;;;;;;4.90;1.52;;;;;;;;;;5074729;28;20032;-61
2022/03/30 09:15:16;;;;;;;4.28;2.05;;;;;;;;;;5070718;28;20045;-61
2022/03/30 09:17:42;;;;;;;3.22;1.92;;;;;;;;;;5051698;28;20506;-61
2022/03/30 09:20:20;;;;;;;3.95;1.90;;;;;;;;;;5060091;28;20037;-61
2022/03/30 09:22:47;;;;;;;3.70;1.55;;;;;;;;;;5060917;28;20400;-61
2022/03/30 09:25:14;;;;;;;2.33;1.30;;;;;;;;;;5056508;28;20122;-60
2022/03/30 09:27:42;;;;;;;2.50;1.52;;;;;;;;;;5063299;28;20041;-61
2022/03/30 09:30:11;;;;;;;3.70;1.73;;;;;;;;;;5069653;28;20510;-62
2022/03/30 09:32:38;;;;;;;3.58;1.33;;;;;;;;;;5060981;28;20522;-61
2022/03/30 09:35:05;;;;;;;3.38;1.60;;;;;;;;;;5064867;28;20129;-61
2022/03/30 09:37:32;;;;;;;2.30;1.58;;;;;;;;;;5071110;28;20490;-62
2022/03/30 09:39:58;;;;;;;4.18;1.58;;;;;;;;;;5065252;28;20036;-61
2022/03/30 09:42:27;;;;;;;5.43;1.65;;;;;;;;;;5059553;28;20125;-61
2022/03/30 09:44:55;;;;;;;2.58;1.25;;;;;;;;;;5052322;28;20037;-61
2022/03/30 09:47:21;;;;;;;3.72;1.13;;;;;;;;;;5067353;28;20052;-61
2022/03/30 09:49:54;;;;;;;2.00;1.20;;;;;;;;;;5077910;28;20101;-60
2022/03/30 09:52:25;;;;;;;4.07;1.27;;;;;;;;;;5068856;28;20033;-61
2022/03/30 09:54:53;;;;;;;4.55;1.30;;;;;;;;;;5057215;28;20043;-61
2022/03/30 09:57:24;;;;;;;4.13;2.10;;;;;;;;;;5055600;28;20040;-61
2022/03/30 10:00:05;;;;;;;2.85;0.90;;;;;;;;;;5057024;28;20032;-61
2022/03/30 10:02:31;;;;;;;;;;;;;;;;;;5058220;28;20068;-60
2022/03/30 10:04:57;;;;;;;4.50;1.20;;;;;;;;;;5056164;28;20402;-60
2022/03/30 10:07:24;;;;;;;2.97;1.10;;;;;;;;;;5077839;28;20497;-61
2022/03/30 10:09:50;;;;;;;3.65;1.20;;;;;;;;;;5077895;28;20111;-61
2022/03/30 10:12:19;;;;;;;3.05;1.13;;;;;;;;;;5065046;28;20664;-61
2022/03/30 10:14:46;;;;;;;3.60;1.15;;;;;;;;;;5066839;28;20397;-62
2022/03/30 10:17:13;;;;;;;3.20;1.00;;;;;;;;;;5058236;28;20084;-61
2022/03/30 10:19:42;;;;;;;5.78;1.60;;;;;;;;;;5062968;28;20036;-62
2022/03/30 10:22:25;;;;;;;3.17;1.27;;;;;;;;;;5071406;28;20049;-62
2022/03/30 10:25:02;;;;;;;4.40;1.70;;;;;;;;;;5054141;28;20459;-61
2022/03/30 10:27:34;;;;;;;4.07;1.30;;;;;;;;;;5058816;28;20099;-62
2022/03/30 10:30:02;;;;;;;3.08;1.27;;;;;;;;;;5058530;28;20151;-62
2022/03/30 10:32:33;;;;;;;6.45;1.90;;;;;;;;;;5065602;28;20044;-62
2022/03/30 10:35:00;;;;;;;3.35;1.13;;;;;;;;;;5074513;28;20086;-61
2022/03/30 10:37:34;;;;;;;2.05;1.20;;;;;;;;;;5061611;28;20086;-62
2022/03/30 10:40:03;;;;;;;3.92;1.42;;;;;;;;;;5064988;28;20114;-61
2022/03/30 10:42:48;;;;;;;3.83;1.40;;;;;;;;;;5059407;28;20114;-61
2022/03/30 10:45:27;;;;;;;3.97;1.40;;;;;;;;;;5070896;28;20044;-61
2022/03/30 10:48:12;;;;;;;2.20;1.35;;;;;;;;;;5069299;28;20068;-62
2022/03/30 10:50:42;;;;;;;3.80;1.38;;;;;;;;;;5061994;28;20063;-62
2022/03/30 10:53:27;;;;;;;5.07;1.60;;;;;;;;;;5068098;28;20086;-62
2022/03/30 10:55:53;;;;;;;5.38;1.80;;;;;;;;;;5052910;28;20059;-62
2022/03/30 10:58:20;;;;;;;1.98;1.30;;;;;;;;;;5052266;28;20044;-62
2022/03/30 11:00:47;;;;;;;4.40;1.50;;;;;;;;;;5060257;28;20140;-62
2022/03/30 11:03:18;;;;;;;4.60;1.20;;;;;;;;;;5061415;28;20047;-62
2022/03/30 11:05:59;;;;;;;6.00;1.80;;;;;;;;;;5069623;28;20036;-62
2022/03/30 11:08:34;;;;;;;2.83;1.35;;;;;;;;;;5082062;28;20071;-62
2022/03/30 11:11:03;;;;;;;3.45;1.33;;;;;;;;;;5067032;28;20044;-62
2022/03/30 11:13:30;;;;;;;3.55;1.40;;;;;;;;;;5065025;28;20043;-62
2022/03/30 11:15:59;;;;;;;2.88;1.48;;;;;;;;;;5089805;28;20035;-62
2022/03/30 11:18:25;;;;;;;3.67;1.15;;;;;;;;;;5084688;28;20100;-62
2022/03/30 11:21:13;;;;;;;4.47;1.67;;;;;;;;;;5062963;28;20056;-62
2022/03/30 11:23:40;;;;;;;1.90;1.20;;;;;;;;;;5081976;28;20452;-60
2022/03/30 11:26:06;;;;;;;3.08;1.40;;;;;;;;;;5062006;28;20037;-61
2022/03/30 11:28:36;;;;;;;1.08;1.00;;;;;;;;;;5076816;28;20067;-62
2022/03/30 11:31:06;;;;;;;3.93;1.57;;;;;;;;;;5069441;28;20119;-61
2022/03/30 11:33:34;;;;;;;1.70;1.02;;;;;;;;;;5073948;28;20509;-61
2022/03/30 11:36:02;;;;;;;3.08;1.10;;;;;;;;;;5066536;28;20394;-61
2022/03/30 11:38:37;;;;;;;2.20;1.20;;;;;;;;;;5080896;28;20164;-61
2022/03/30 11:41:08;;;;;;;1.92;1.10;;;;;;;;;;5073632;28;20048;-61
2022/03/30 11:45:12;;;;;;;3.53;1.02;;;;;;;;;;5054082;28;20049;-61
2022/03/30 11:46:28;;;;;;;2.78;1.30;;;;;;;;;;5056390;28;20039;-61
2022/03/30 11:48:59;;;;;;;2.92;1.30;;;;;;;;;;5078696;28;20496;-61
2022/03/30 11:51:26;;;;;;;2.65;1.10;;;;;;;;;;5061708;28;20045;-61
2022/03/30 11:56:23;;;;;;;4.00;1.45;;;;;;;;;;5110591;27;20046;-60
2022/03/30 11:58:56;;;;;;;3.38;1.20;;;;;;;;;;5107417;27;20385;-60
2022/03/30 12:01:23;;;;;;;2.28;1.20;;;;;;;;;;5114405;27;20070;-60
2022/03/30 12:03:54;;;;;;;3.47;1.10;;;;;;;;;;5095628;28;20044;-60
2022/03/30 12:06:20;;;;;;;2.90;1.02;;;;;;;;;;5099235;28;20067;-61
2022/03/30 12:08:52;;;;;;;4.38;1.30;;;;;;;;;;5097579;28;20040;-60
2022/03/30 12:11:19;;;;;;;;;;;;;;;;;;5096918;28;20051;-60
2022/03/30 12:13:49;;;;;;;2.15;1.00;;;;;;;;;;5096480;28;19935;-61
2022/03/30 12:16:16;;;;;;;1.55;0.90;;;;;;;;;;5111832;28;20035;-61
2022/03/30 12:18:49;;;;;;;3.10;0.95;;;;;;;;;;5105787;28;20057;-61
2022/03/30 12:21:18;;;;;;;3.47;1.10;;;;;;;;;;5110813;28;20533;-61
2022/03/30 12:23:54;;;;;;;2.17;0.90;;;;;;;;;;5100566;28;20075;-61
2022/03/30 12:26:20;;;;;;;6.10;0.88;;;;;;;;;;5102353;28;20051;-62
2022/03/30 12:28:46;;;;;;;3.35;1.10;;;;;;;;;;5099551;28;20032;-61
2022/03/30 12:31:14;;;;;;;5.25;1.17;;;;;;;;;;5104387;28;20062;-61
2022/03/30 12:33:57;;;;;;;3.35;1.00;;;;;;;;;;5099111;28;20044;-61
2022/03/30 12:36:23;;;;;;;2.45;0.80;;;;;;;;;;5100041;28;20044;-61
2022/03/30 12:38:52;;;;;;;2.08;0.70;;;;;;;;;;5101357;28;20050;-61
2022/03/30 12:41:27;;;;;;;2.30;0.77;;;;;;;;;;5100104;28;20118;-61
2022/03/30 12:44:03;;;;;;;2.08;0.73;;;;;;;;;;5099066;28;20181;-62
2022/03/30 12:46:30;;;;;;;1.60;0.98;;;;;;;;;;5100812;28;20043;-61
2022/03/30 12:49:03;;;;;;;4.40;1.00;;;;;;;;;;5082611;28;20036;-61
2022/03/30 12:51:33;;;;;;;3.20;1.02;;;;;;;;;;5094165;28;20040;-61
2022/03/30 12:54:00;;;;;;;1.40;0.95;;;;;;;;;;5074329;28;20122;-62
2022/03/30 12:56:26;;;;;;;1.42;0.90;;;;;;;;;;5094622;28;20034;-61
2022/03/30 12:58:53;;;;;;;3.28;1.30;;;;;;;;;;5086491;28;20112;-61
2022/03/30 13:01:32;;;;;;;2.25;1.08;;;;;;;;;;5097688;28;20040;-61
2022/03/30 13:03:58;;;;;;;1.63;0.90;;;;;;;;;;5092726;28;20039;-61
2022/03/30 13:06:25;;;;;;;3.40;1.23;;;;;;;;;;5095787;28;20156;-61
2022/03/30 13:09:12;;;;;;;3.50;0.88;;;;;;;;;;5097663;28;20044;-61
2022/03/30 13:11:45;;;;;;;2.35;1.00;;;;;;;;;;5100019;28;20040;-61
2022/03/30 13:14:12;;;;;;;1.48;1.08;;;;;;;;;;5092561;28;20334;-61
2022/03/30 13:16:38;;;;;;;2.80;1.00;;;;;;;;;;5093368;28;20036;-61
2022/03/30 13:19:11;;;;;;;1.58;0.93;;;;;;;;;;5098536;28;20071;-61
2022/03/30 13:21:38;;;;;;;2.50;1.15;;;;;;;;;;5098645;28;20046;-59
2022/03/30 13:24:14;;;;;;;4.32;1.20;;;;;;;;;;5100771;28;20037;-60
2022/03/30 13:26:41;;;;;;;1.45;0.98;;;;;;;;;;5099494;28;20063;-60
2022/03/30 13:29:08;;;;;;;1.90;1.20;;;;;;;;;;5098970;28;20036;-60
2022/03/30 13:31:36;;;;;;;1.70;1.00;;;;;;;;;;5100142;28;20393;-60
2022/03/30 13:34:05;;;;;;;1.92;1.17;;;;;;;;;;5099154;28;20062;-61
2022/03/30 13:36:31;;;;;;;2.33;1.20;;;;;;;;;;5098135;28;20032;-61
2022/03/30 13:38:57;;;;;;;2.17;1.17;;;;;;;;;;5098005;28;20050;-59
2022/03/30 13:41:24;;;;;;;2.28;1.10;;;;;;;;;;5080777;28;20519;-59
2022/03/30 13:43:50;;;;;;;3.38;1.17;;;;;;;;;;5096889;28;20050;-60
2022/03/30 13:46:16;;;;;;;5.57;1.45;;;;;;;;;;5107725;28;20118;-59
2022/03/30 13:48:42;;;;;;;3.08;1.00;;;;;;;;;;5098890;28;20469;-59
2022/03/30 13:51:08;;;;;;;2.10;1.10;;;;;;;;;;5093770;28;20067;-60
2022/03/30 13:53:36;;;;;;;3.45;1.13;;;;;;;;;;5102745;28;20079;-60
2022/03/30 13:56:02;;;;;;;3.92;1.10;;;;;;;;;;5108327;28;20036;-60
2022/03/30 13:58:30;;;;;;;3.28;1.33;;;;;;;;;;5098823;28;20115;-60
2022/03/30 14:00:56;;;;;;;2.22;1.27;;;;;;;;;;5092095;28;20161;-60
2022/03/30 14:03:22;;;;;;;2.58;1.38;;;;;;;;;;5092568;28;20096;-60
2022/03/30 14:05:48;;;;;;;3.00;1.00;;;;;;;;;;5088317;28;20169;-61
2022/03/30 14:08:14;;;;;;;2.00;1.25;;;;;;;;;;5099251;28;20047;-60
2022/03/30 14:10:40;;;;;;;2.25;1.20;;;;;;;;;;5099223;28;20039;-60
2022/03/30 14:13:07;;;;;;;3.45;1.30;;;;;;;;;;5094490;28;20043;-61
2022/03/30 14:15:33;;;;;;;3.78;1.27;;;;;;;;;;5102026;28;20038;-61
2022/03/30 14:17:59;;;;;;;5.00;1.40;;;;;;;;;;5103750;28;20035;-61
2022/03/30 14:20:25;;;;;;;3.42;1.40;;;;;;;;;;5099766;28;20036;-61
2022/03/30 14:22:51;;;;;;;5.22;1.30;;;;;;;;;;5098788;28;20046;-62
2022/03/30 14:25:18;;;;;;;3.03;1.40;;;;;;;;;;5099721;28;20059;-60
2022/03/30 14:27:44;;;;;;;5.53;1.80;;;;;;;;;;5096647;28;20119;-61
2022/03/30 14:30:11;;;;;;;4.70;1.38;;;;;;;;;;5101492;28;20035;-62
2022/03/30 14:32:38;;;;;;;4.57;1.45;;;;;;;;;;5100857;28;20109;-61
2022/03/30 14:35:04;;;;;;;3.20;1.40;;;;;;;;;;5098779;28;20058;-61
2022/03/30 14:37:31;;;;;;;3.72;1.27;;;;;;;;;;5098034;28;20028;-61
2022/03/30 14:39:58;;;;;;;4.07;1.58;;;;;;;;;;5097198;28;20047;-61
2022/03/30 14:42:24;;;;;;;5.13;1.70;;;;;;;;;;5099950;28;20042;-60
2022/03/30 14:44:50;;;;;;;4.68;1.60;;;;;;;;;;5097685;28;20439;-61
2022/03/30 14:47:17;;;;;;;8.95;1.70;;;;;;;;;;5102469;28;20437;-61
2022/03/30 14:49:43;;;;;;;7.40;1.80;;;;;;;;;;5093922;28;20085;-61